sensor_id;sensor_type;location;lat;lon;timestamp;P1;durP1;ratioP1;P2;durP2;ratioP2
20423;SDS011;10371;49.042;8.002;2023-02-12T00:00:14;22.30;;;20.00;;
20423;SDS011;10371;49.042;8.002;2023-02-12T00:01:15;20.67;;;18.47;;
20423;SDS011;10371;49.042;8.002;2023-02-12T00:02:16;22.27;;;18.37;;
20423;SDS011;10371;49.042;8.002;2023-02-12T00:03:17;20.87;;;18.67;;
20423;SDS011;10371;49.042;8.002;2023-02-12T00:04:17;20.83;;;18.43;;
20423;SDS011;10371;49.042;8.002;2023-02-12T00:05:17;19.23;;;17.10;;
20423;SDS011;10371;49.042;8.002;2023-02-12T00:06:18;19.47;;;17.47;;
20423;SDS011;10371;49.042;8.002;2023-02-12T00:07:18;20.30;;;16.63;;
20423;SDS011;10371;49.042;8.002;2023-02-12T00:08:18;20.37;;;17.23;;
20423;SDS011;10371;49.042;8.002;2023-02-12T00:09:18;19.53;;;17.13;;
20423;SDS011;10371;49.042;8.002;2023-02-12T00:10:19;20.57;;;18.37;;
20423;SDS011;10371;49.042;8.002;2023-02-12T00:11:21;21.10;;;17.97;;
20423;SDS011;10371;49.042;8.002;2023-02-12T00:12:23;21.03;;;18.57;;
20423;SDS011;10371;49.042;8.002;2023-02-12T00:13:23;20.60;;;18.40;;
20423;SDS011;10371;49.042;8.002;2023-02-12T00:14:23;23.70;;;20.13;;
20423;SDS011;10371;49.042;8.002;2023-02-12T00:15:24;21.60;;;19.30;;
20423;SDS011;10371;49.042;8.002;2023-02-12T00:16:25;22.93;;;20.40;;
20423;SDS011;10371;49.042;8.002;2023-02-12T00:17:27;23.53;;;19.97;;
20423;SDS011;10371;49.042;8.002;2023-02-12T00:18:27;24.33;;;20.80;;
20423;SDS011;10371;49.042;8.002;2023-02-12T00:19:28;25.50;;;21.07;;
20423;SDS011;10371;49.042;8.002;2023-02-12T00:20:28;23.27;;;20.70;;
20423;SDS011;10371;49.042;8.002;2023-02-12T00:21:28;26.87;;;21.47;;
20423;SDS011;10371;49.042;8.002;2023-02-12T00:22:29;22.70;;;19.77;;
20423;SDS011;10371;49.042;8.002;2023-02-12T00:23:29;22.63;;;20.17;;
20423;SDS011;10371;49.042;8.002;2023-02-12T00:24:29;21.93;;;19.60;;
20423;SDS011;10371;49.042;8.002;2023-02-12T00:25:30;22.60;;;20.20;;
20423;SDS011;10371;49.042;8.002;2023-02-12T00:26:30;26.30;;;21.30;;
20423;SDS011;10371;49.042;8.002;2023-02-12T00:27:31;23.60;;;21.13;;
20423;SDS011;10371;49.042;8.002;2023-02-12T00:28:32;23.47;;;20.80;;
20423;SDS011;10371;49.042;8.002;2023-02-12T00:29:33;22.70;;;20.20;;
20423;SDS011;10371;49.042;8.002;2023-02-12T00:30:33;22.03;;;19.83;;
20423;SDS011;10371;49.042;8.002;2023-02-12T00:31:34;22.30;;;19.93;;
20423;SDS011;10371;49.042;8.002;2023-02-12T00:32:34;21.43;;;19.23;;
20423;SDS011;10371;49.042;8.002;2023-02-12T00:33:36;21.57;;;19.27;;
20423;SDS011;10371;49.042;8.002;2023-02-12T00:34:37;22.30;;;19.90;;
20423;SDS011;10371;49.042;8.002;2023-02-12T00:35:37;24.67;;;20.83;;
20423;SDS011;10371;49.042;8.002;2023-02-12T00:36:37;24.67;;;20.33;;
20423;SDS011;10371;49.042;8.002;2023-02-12T00:37:38;25.13;;;21.27;;
20423;SDS011;10371;49.042;8.002;2023-02-12T00:38:38;23.40;;;20.90;;
20423;SDS011;10371;49.042;8.002;2023-02-12T00:39:38;25.07;;;21.97;;
20423;SDS011;10371;49.042;8.002;2023-02-12T00:40:38;24.97;;;21.33;;
20423;SDS011;10371;49.042;8.002;2023-02-12T00:41:39;24.30;;;20.93;;
20423;SDS011;10371;49.042;8.002;2023-02-12T00:42:39;25.27;;;20.87;;
20423;SDS011;10371;49.042;8.002;2023-02-12T00:43:39;23.67;;;20.37;;
20423;SDS011;10371;49.042;8.002;2023-02-12T00:44:40;23.07;;;19.70;;
20423;SDS011;10371;49.042;8.002;2023-02-12T00:45:40;21.57;;;18.90;;
20423;SDS011;10371;49.042;8.002;2023-02-12T00:46:40;21.70;;;19.40;;
20423;SDS011;10371;49.042;8.002;2023-02-12T00:47:40;21.10;;;18.90;;
20423;SDS011;10371;49.042;8.002;2023-02-12T00:48:41;22.03;;;19.80;;
20423;SDS011;10371;49.042;8.002;2023-02-12T00:49:41;21.70;;;19.40;;
20423;SDS011;10371;49.042;8.002;2023-02-12T00:50:44;24.27;;;20.33;;
20423;SDS011;10371;49.042;8.002;2023-02-12T00:51:46;22.57;;;20.20;;
20423;SDS011;10371;49.042;8.002;2023-02-12T00:52:46;23.47;;;20.97;;
20423;SDS011;10371;49.042;8.002;2023-02-12T00:53:46;22.83;;;20.03;;
20423;SDS011;10371;49.042;8.002;2023-02-12T00:54:47;20.37;;;17.90;;
20423;SDS011;10371;49.042;8.002;2023-02-12T00:55:47;23.00;;;19.10;;
20423;SDS011;10371;49.042;8.002;2023-02-12T00:56:47;21.43;;;18.93;;
20423;SDS011;10371;49.042;8.002;2023-02-12T00:57:47;21.63;;;18.90;;
20423;SDS011;10371;49.042;8.002;2023-02-12T00:58:48;20.47;;;17.27;;
20423;SDS011;10371;49.042;8.002;2023-02-12T00:59:48;19.77;;;17.20;;
20423;SDS011;10371;49.042;8.002;2023-02-12T01:00:49;25.60;;;18.73;;
20423;SDS011;10371;49.042;8.002;2023-02-12T01:01:50;20.67;;;18.37;;
20423;SDS011;10371;49.042;8.002;2023-02-12T01:02:51;20.70;;;18.50;;
20423;SDS011;10371;49.042;8.002;2023-02-12T01:03:51;21.37;;;18.97;;
20423;SDS011;10371;49.042;8.002;2023-02-12T01:04:52;22.30;;;19.47;;
20423;SDS011;10371;49.042;8.002;2023-02-12T01:05:52;24.17;;;19.27;;
20423;SDS011;10371;49.042;8.002;2023-02-12T01:06:52;20.47;;;18.17;;
20423;SDS011;10371;49.042;8.002;2023-02-12T01:07:53;20.97;;;17.53;;
20423;SDS011;10371;49.042;8.002;2023-02-12T01:08:53;21.23;;;18.93;;
20423;SDS011;10371;49.042;8.002;2023-02-12T01:09:54;21.80;;;18.73;;
20423;SDS011;10371;49.042;8.002;2023-02-12T01:10:58;20.10;;;17.50;;
20423;SDS011;10371;49.042;8.002;2023-02-12T01:12:01;20.47;;;17.87;;
20423;SDS011;10371;49.042;8.002;2023-02-12T01:13:02;21.03;;;17.50;;
20423;SDS011;10371;49.042;8.002;2023-02-12T01:14:02;20.07;;;17.97;;
20423;SDS011;10371;49.042;8.002;2023-02-12T01:15:03;21.37;;;18.57;;
20423;SDS011;10371;49.042;8.002;2023-02-12T01:17:14;19.90;;;17.70;;
20423;SDS011;10371;49.042;8.002;2023-02-12T01:18:15;19.43;;;17.23;;
20423;SDS011;10371;49.042;8.002;2023-02-12T01:19:15;18.63;;;16.60;;
20423;SDS011;10371;49.042;8.002;2023-02-12T01:20:18;19.57;;;16.63;;
20423;SDS011;10371;49.042;8.002;2023-02-12T01:21:21;18.53;;;16.53;;
20423;SDS011;10371;49.042;8.002;2023-02-12T01:22:23;18.30;;;16.37;;
20423;SDS011;10371;49.042;8.002;2023-02-12T01:23:24;20.07;;;16.83;;
20423;SDS011;10371;49.042;8.002;2023-02-12T01:24:24;17.33;;;15.50;;
20423;SDS011;10371;49.042;8.002;2023-02-12T01:25:24;17.70;;;15.63;;
20423;SDS011;10371;49.042;8.002;2023-02-12T01:26:25;18.53;;;15.93;;
20423;SDS011;10371;49.042;8.002;2023-02-12T01:27:26;17.83;;;15.93;;
20423;SDS011;10371;49.042;8.002;2023-02-12T01:28:27;17.63;;;15.73;;
20423;SDS011;10371;49.042;8.002;2023-02-12T01:29:27;18.23;;;15.33;;
20423;SDS011;10371;49.042;8.002;2023-02-12T01:30:27;17.30;;;14.77;;
20423;SDS011;10371;49.042;8.002;2023-02-12T01:31:28;20.30;;;15.57;;
20423;SDS011;10371;49.042;8.002;2023-02-12T01:32:30;16.93;;;15.10;;
20423;SDS011;10371;49.042;8.002;2023-02-12T01:33:31;17.60;;;14.47;;
20423;SDS011;10371;49.042;8.002;2023-02-12T01:34:31;18.20;;;15.93;;
20423;SDS011;10371;49.042;8.002;2023-02-12T01:35:31;15.60;;;13.97;;
20423;SDS011;10371;49.042;8.002;2023-02-12T01:36:32;15.83;;;14.17;;
20423;SDS011;10371;49.042;8.002;2023-02-12T01:37:34;16.67;;;14.03;;
20423;SDS011;10371;49.042;8.002;2023-02-12T01:38:35;15.60;;;13.70;;
20423;SDS011;10371;49.042;8.002;2023-02-12T01:39:35;17.00;;;14.27;;
20423;SDS011;10371;49.042;8.002;2023-02-12T01:40:36;15.40;;;13.40;;
20423;SDS011;10371;49.042;8.002;2023-02-12T01:41:39;17.10;;;13.83;;
20423;SDS011;10371;49.042;8.002;2023-02-12T01:42:42;15.83;;;14.27;;
20423;SDS011;10371;49.042;8.002;2023-02-12T01:43:43;17.17;;;14.00;;
20423;SDS011;10371;49.042;8.002;2023-02-12T01:44:45;16.43;;;13.73;;
20423;SDS011;10371;49.042;8.002;2023-02-12T01:46:13;16.37;;;13.73;;
20423;SDS011;10371;49.042;8.002;2023-02-12T01:47:15;17.07;;;13.97;;
20423;SDS011;10371;49.042;8.002;2023-02-12T01:48:17;16.47;;;13.57;;
20423;SDS011;10371;49.042;8.002;2023-02-12T01:49:20;16.23;;;13.07;;
20423;SDS011;10371;49.042;8.002;2023-02-12T01:50:25;16.93;;;14.07;;
20423;SDS011;10371;49.042;8.002;2023-02-12T01:51:26;16.13;;;13.10;;
20423;SDS011;10371;49.042;8.002;2023-02-12T01:52:29;15.67;;;13.07;;
20423;SDS011;10371;49.042;8.002;2023-02-12T01:53:34;15.97;;;13.40;;
20423;SDS011;10371;49.042;8.002;2023-02-12T01:54:36;15.30;;;13.70;;
20423;SDS011;10371;49.042;8.002;2023-02-12T01:55:38;16.13;;;13.33;;
20423;SDS011;10371;49.042;8.002;2023-02-12T01:56:38;15.43;;;13.40;;
20423;SDS011;10371;49.042;8.002;2023-02-12T01:57:40;15.50;;;12.50;;
20423;SDS011;10371;49.042;8.002;2023-02-12T01:58:42;16.90;;;13.80;;
20423;SDS011;10371;49.042;8.002;2023-02-12T01:59:46;17.60;;;13.40;;
20423;SDS011;10371;49.042;8.002;2023-02-12T02:00:49;15.97;;;13.13;;
20423;SDS011;10371;49.042;8.002;2023-02-12T02:01:50;14.67;;;12.83;;
20423;SDS011;10371;49.042;8.002;2023-02-12T02:02:54;13.97;;;12.47;;
20423;SDS011;10371;49.042;8.002;2023-02-12T02:04:01;15.60;;;12.97;;
20423;SDS011;10371;49.042;8.002;2023-02-12T02:05:07;14.17;;;12.60;;
20423;SDS011;10371;49.042;8.002;2023-02-12T02:06:08;12.77;;;11.57;;
20423;SDS011;10371;49.042;8.002;2023-02-12T02:07:12;13.23;;;11.83;;
20423;SDS011;10371;49.042;8.002;2023-02-12T02:08:13;13.67;;;12.20;;
20423;SDS011;10371;49.042;8.002;2023-02-12T02:09:14;12.87;;;11.60;;
20423;SDS011;10371;49.042;8.002;2023-02-12T02:10:16;14.70;;;12.17;;
20423;SDS011;10371;49.042;8.002;2023-02-12T02:11:16;14.20;;;12.00;;
20423;SDS011;10371;49.042;8.002;2023-02-12T02:12:35;13.90;;;12.40;;
20423;SDS011;10371;49.042;8.002;2023-02-12T02:13:55;14.10;;;12.50;;
20423;SDS011;10371;49.042;8.002;2023-02-12T02:15:14;14.70;;;12.57;;
20423;SDS011;10371;49.042;8.002;2023-02-12T02:16:19;16.03;;;13.30;;
20423;SDS011;10371;49.042;8.002;2023-02-12T02:18:42;14.10;;;12.57;;
20423;SDS011;10371;49.042;8.002;2023-02-12T02:28:02;16.53;;;13.80;;
20423;SDS011;10371;49.042;8.002;2023-02-12T02:32:38;15.40;;;13.77;;
20423;SDS011;10371;49.042;8.002;2023-02-12T02:33:52;15.47;;;13.67;;
20423;SDS011;10371;49.042;8.002;2023-02-12T02:34:59;17.40;;;14.23;;
20423;SDS011;10371;49.042;8.002;2023-02-12T02:39:03;15.83;;;14.13;;
20423;SDS011;10371;49.042;8.002;2023-02-12T02:40:10;18.33;;;14.37;;
20423;SDS011;10371;49.042;8.002;2023-02-12T02:41:33;17.30;;;14.60;;
20423;SDS011;10371;49.042;8.002;2023-02-12T02:42:32;17.93;;;13.93;;
20423;SDS011;10371;49.042;8.002;2023-02-12T02:43:39;17.37;;;14.73;;
20423;SDS011;10371;49.042;8.002;2023-02-12T02:44:46;18.30;;;14.67;;
20423;SDS011;10371;49.042;8.002;2023-02-12T02:45:52;17.00;;;14.30;;
20423;SDS011;10371;49.042;8.002;2023-02-12T02:46:56;15.87;;;13.33;;
20423;SDS011;10371;49.042;8.002;2023-02-12T02:47:59;18.23;;;14.33;;
20423;SDS011;10371;49.042;8.002;2023-02-12T02:49:06;15.47;;;13.73;;
20423;SDS011;10371;49.042;8.002;2023-02-12T02:50:11;16.67;;;13.07;;
20423;SDS011;10371;49.042;8.002;2023-02-12T02:51:15;18.30;;;13.93;;
20423;SDS011;10371;49.042;8.002;2023-02-12T02:52:21;16.87;;;12.87;;
20423;SDS011;10371;49.042;8.002;2023-02-12T02:53:29;15.07;;;13.23;;
20423;SDS011;10371;49.042;8.002;2023-02-12T02:54:33;14.20;;;12.60;;
20423;SDS011;10371;49.042;8.002;2023-02-12T02:55:42;17.37;;;13.80;;
20423;SDS011;10371;49.042;8.002;2023-02-12T02:56:47;15.37;;;12.80;;
20423;SDS011;10371;49.042;8.002;2023-02-12T02:57:53;15.43;;;13.83;;
20423;SDS011;10371;49.042;8.002;2023-02-12T02:59:02;17.57;;;13.37;;
20423;SDS011;10371;49.042;8.002;2023-02-12T03:00:17;17.13;;;14.33;;
20423;SDS011;10371;49.042;8.002;2023-02-12T03:01:33;16.60;;;14.10;;
20423;SDS011;10371;49.042;8.002;2023-02-12T03:02:39;15.30;;;12.83;;
20423;SDS011;10371;49.042;8.002;2023-02-12T03:03:55;16.73;;;13.93;;
20423;SDS011;10371;49.042;8.002;2023-02-12T03:05:02;15.20;;;12.73;;
20423;SDS011;10371;49.042;8.002;2023-02-12T03:06:19;14.93;;;13.27;;
20423;SDS011;10371;49.042;8.002;2023-02-12T03:07:28;14.60;;;13.03;;
20423;SDS011;10371;49.042;8.002;2023-02-12T03:08:39;16.47;;;13.27;;
20423;SDS011;10371;49.042;8.002;2023-02-12T03:09:47;17.63;;;13.93;;
20423;SDS011;10371;49.042;8.002;2023-02-12T03:10:52;14.30;;;12.80;;
20423;SDS011;10371;49.042;8.002;2023-02-12T03:12:02;14.53;;;12.73;;
20423;SDS011;10371;49.042;8.002;2023-02-12T03:13:10;14.87;;;13.20;;
20423;SDS011;10371;49.042;8.002;2023-02-12T03:14:22;15.07;;;13.43;;
20423;SDS011;10371;49.042;8.002;2023-02-12T03:15:32;15.27;;;13.40;;
20423;SDS011;10371;49.042;8.002;2023-02-12T03:16:48;15.57;;;13.60;;
20423;SDS011;10371;49.042;8.002;2023-02-12T03:17:54;15.10;;;13.47;;
20423;SDS011;10371;49.042;8.002;2023-02-12T03:21:25;16.53;;;14.03;;
20423;SDS011;10371;49.042;8.002;2023-02-12T03:22:30;15.03;;;13.30;;
20423;SDS011;10371;49.042;8.002;2023-02-12T03:23:36;15.63;;;13.87;;
20423;SDS011;10371;49.042;8.002;2023-02-12T03:24:44;16.13;;;13.50;;
20423;SDS011;10371;49.042;8.002;2023-02-12T03:25:51;15.73;;;14.13;;
20423;SDS011;10371;49.042;8.002;2023-02-12T03:27:01;16.07;;;12.93;;
20423;SDS011;10371;49.042;8.002;2023-02-12T03:28:09;16.47;;;13.60;;
20423;SDS011;10371;49.042;8.002;2023-02-12T03:29:25;15.37;;;13.53;;
20423;SDS011;10371;49.042;8.002;2023-02-12T03:30:28;13.87;;;12.40;;
20423;SDS011;10371;49.042;8.002;2023-02-12T03:33:11;14.80;;;13.23;;
20423;SDS011;10371;49.042;8.002;2023-02-12T03:36:12;14.43;;;12.93;;
20423;SDS011;10371;49.042;8.002;2023-02-12T03:37:31;13.73;;;12.23;;
20423;SDS011;10371;49.042;8.002;2023-02-12T03:38:38;15.37;;;13.07;;
20423;SDS011;10371;49.042;8.002;2023-02-12T03:39:57;16.03;;;12.97;;
20423;SDS011;10371;49.042;8.002;2023-02-12T03:41:07;15.23;;;13.27;;
20423;SDS011;10371;49.042;8.002;2023-02-12T03:43:31;15.17;;;13.43;;
20423;SDS011;10371;49.042;8.002;2023-02-12T03:46:04;16.77;;;13.63;;
20423;SDS011;10371;49.042;8.002;2023-02-12T03:47:24;16.00;;;13.07;;
20423;SDS011;10371;49.042;8.002;2023-02-12T03:48:55;15.43;;;13.80;;
20423;SDS011;10371;49.042;8.002;2023-02-12T03:51:37;15.73;;;14.10;;
20423;SDS011;10371;49.042;8.002;2023-02-12T03:52:39;18.07;;;14.57;;
20423;SDS011;10371;49.042;8.002;2023-02-12T03:53:40;15.50;;;13.33;;
20423;SDS011;10371;49.042;8.002;2023-02-12T03:54:41;19.40;;;14.20;;
20423;SDS011;10371;49.042;8.002;2023-02-12T03:55:42;16.27;;;14.60;;
20423;SDS011;10371;49.042;8.002;2023-02-12T03:56:47;16.33;;;13.67;;
20423;SDS011;10371;49.042;8.002;2023-02-12T03:57:52;16.07;;;14.13;;
20423;SDS011;10371;49.042;8.002;2023-02-12T03:58:58;15.73;;;13.60;;
20423;SDS011;10371;49.042;8.002;2023-02-12T03:59:59;16.73;;;15.00;;
20423;SDS011;10371;49.042;8.002;2023-02-12T04:01:03;16.50;;;14.83;;
20423;SDS011;10371;49.042;8.002;2023-02-12T04:02:04;17.93;;;14.90;;
20423;SDS011;10371;49.042;8.002;2023-02-12T04:03:06;17.37;;;14.63;;
20423;SDS011;10371;49.042;8.002;2023-02-12T04:04:07;17.90;;;14.87;;
20423;SDS011;10371;49.042;8.002;2023-02-12T04:05:19;16.60;;;14.70;;
20423;SDS011;10371;49.042;8.002;2023-02-12T04:06:22;17.70;;;15.03;;
20423;SDS011;10371;49.042;8.002;2023-02-12T04:07:24;17.37;;;14.93;;
20423;SDS011;10371;49.042;8.002;2023-02-12T04:08:25;17.73;;;15.00;;
20423;SDS011;10371;49.042;8.002;2023-02-12T04:09:26;18.40;;;14.77;;
20423;SDS011;10371;49.042;8.002;2023-02-12T04:13:22;17.13;;;14.73;;
20423;SDS011;10371;49.042;8.002;2023-02-12T04:19:49;17.13;;;14.43;;
20423;SDS011;10371;49.042;8.002;2023-02-12T04:22:31;16.67;;;14.40;;
20423;SDS011;10371;49.042;8.002;2023-02-12T04:23:56;18.07;;;14.93;;
20423;SDS011;10371;49.042;8.002;2023-02-12T04:27:56;18.10;;;15.57;;
20423;SDS011;10371;49.042;8.002;2023-02-12T04:31:01;16.93;;;14.40;;
20423;SDS011;10371;49.042;8.002;2023-02-12T04:32:15;16.63;;;14.83;;
20423;SDS011;10371;49.042;8.002;2023-02-12T04:33:20;16.63;;;14.03;;
20423;SDS011;10371;49.042;8.002;2023-02-12T04:34:25;17.27;;;15.37;;
20423;SDS011;10371;49.042;8.002;2023-02-12T04:35:39;16.17;;;14.23;;
20423;SDS011;10371;49.042;8.002;2023-02-12T04:37:01;18.97;;;15.57;;
20423;SDS011;10371;49.042;8.002;2023-02-12T04:39:16;18.13;;;15.93;;
20423;SDS011;10371;49.042;8.002;2023-02-12T04:40:23;18.33;;;16.33;;
20423;SDS011;10371;49.042;8.002;2023-02-12T04:41:24;18.30;;;16.37;;
20423;SDS011;10371;49.042;8.002;2023-02-12T04:42:25;20.90;;;16.70;;
20423;SDS011;10371;49.042;8.002;2023-02-12T04:43:27;19.87;;;17.50;;
20423;SDS011;10371;49.042;8.002;2023-02-12T04:44:35;19.53;;;17.43;;
20423;SDS011;10371;49.042;8.002;2023-02-12T04:45:38;21.10;;;18.47;;
20423;SDS011;10371;49.042;8.002;2023-02-12T04:46:38;21.17;;;18.63;;
20423;SDS011;10371;49.042;8.002;2023-02-12T04:47:38;20.90;;;17.43;;
20423;SDS011;10371;49.042;8.002;2023-02-12T04:48:52;21.33;;;18.40;;
20423;SDS011;10371;49.042;8.002;2023-02-12T04:49:55;24.17;;;18.03;;
20423;SDS011;10371;49.042;8.002;2023-02-12T04:50:55;20.90;;;18.63;;
20423;SDS011;10371;49.042;8.002;2023-02-12T04:51:55;22.73;;;18.40;;
20423;SDS011;10371;49.042;8.002;2023-02-12T04:52:56;21.03;;;18.43;;
20423;SDS011;10371;49.042;8.002;2023-02-12T04:53:56;20.93;;;17.83;;
20423;SDS011;10371;49.042;8.002;2023-02-12T04:54:56;20.43;;;18.23;;
20423;SDS011;10371;49.042;8.002;2023-02-12T04:55:57;22.50;;;19.50;;
20423;SDS011;10371;49.042;8.002;2023-02-12T04:56:57;21.87;;;17.93;;
20423;SDS011;10371;49.042;8.002;2023-02-12T04:57:58;21.03;;;18.57;;
20423;SDS011;10371;49.042;8.002;2023-02-12T04:58:58;19.80;;;17.70;;
20423;SDS011;10371;49.042;8.002;2023-02-12T04:59:58;20.77;;;17.73;;
20423;SDS011;10371;49.042;8.002;2023-02-12T05:00:58;23.53;;;19.17;;
20423;SDS011;10371;49.042;8.002;2023-02-12T05:01:59;21.13;;;18.83;;
20423;SDS011;10371;49.042;8.002;2023-02-12T05:02:59;22.10;;;18.17;;
20423;SDS011;10371;49.042;8.002;2023-02-12T05:03:59;20.97;;;18.07;;
20423;SDS011;10371;49.042;8.002;2023-02-12T05:05:00;22.00;;;19.20;;
20423;SDS011;10371;49.042;8.002;2023-02-12T05:06:01;20.40;;;18.00;;
20423;SDS011;10371;49.042;8.002;2023-02-12T05:07:03;20.97;;;18.77;;
20423;SDS011;10371;49.042;8.002;2023-02-12T05:08:03;22.93;;;19.23;;
20423;SDS011;10371;49.042;8.002;2023-02-12T05:09:04;21.23;;;18.03;;
20423;SDS011;10371;49.042;8.002;2023-02-12T05:10:06;21.17;;;18.80;;
20423;SDS011;10371;49.042;8.002;2023-02-12T05:11:07;22.27;;;18.70;;
20423;SDS011;10371;49.042;8.002;2023-02-12T05:12:08;25.73;;;20.13;;
20423;SDS011;10371;49.042;8.002;2023-02-12T05:13:09;21.07;;;18.57;;
20423;SDS011;10371;49.042;8.002;2023-02-12T05:14:09;22.73;;;19.03;;
20423;SDS011;10371;49.042;8.002;2023-02-12T05:15:09;21.67;;;18.67;;
20423;SDS011;10371;49.042;8.002;2023-02-12T05:16:10;22.73;;;18.30;;
20423;SDS011;10371;49.042;8.002;2023-02-12T05:17:10;22.40;;;18.77;;
20423;SDS011;10371;49.042;8.002;2023-02-12T05:18:10;22.07;;;19.53;;
20423;SDS011;10371;49.042;8.002;2023-02-12T05:19:11;22.17;;;18.60;;
20423;SDS011;10371;49.042;8.002;2023-02-12T05:20:11;20.43;;;18.23;;
20423;SDS011;10371;49.042;8.002;2023-02-12T05:21:12;23.47;;;19.03;;
20423;SDS011;10371;49.042;8.002;2023-02-12T05:22:13;21.57;;;18.27;;
20423;SDS011;10371;49.042;8.002;2023-02-12T05:23:13;22.03;;;18.93;;
20423;SDS011;10371;49.042;8.002;2023-02-12T05:24:13;20.87;;;18.67;;
20423;SDS011;10371;49.042;8.002;2023-02-12T05:25:14;21.43;;;19.13;;
20423;SDS011;10371;49.042;8.002;2023-02-12T05:26:15;22.97;;;18.37;;
20423;SDS011;10371;49.042;8.002;2023-02-12T05:27:17;23.70;;;19.10;;
20423;SDS011;10371;49.042;8.002;2023-02-12T05:28:17;22.23;;;18.93;;
20423;SDS011;10371;49.042;8.002;2023-02-12T05:29:17;21.17;;;18.87;;
20423;SDS011;10371;49.042;8.002;2023-02-12T05:30:18;23.00;;;19.27;;
20423;SDS011;10371;49.042;8.002;2023-02-12T05:31:18;20.87;;;18.57;;
20423;SDS011;10371;49.042;8.002;2023-02-12T05:32:19;23.07;;;18.27;;
20423;SDS011;10371;49.042;8.002;2023-02-12T05:33:19;21.93;;;18.63;;
20423;SDS011;10371;49.042;8.002;2023-02-12T05:34:20;23.17;;;19.17;;
20423;SDS011;10371;49.042;8.002;2023-02-12T05:35:20;22.20;;;19.23;;
20423;SDS011;10371;49.042;8.002;2023-02-12T05:36:21;20.93;;;18.50;;
20423;SDS011;10371;49.042;8.002;2023-02-12T05:37:22;22.10;;;18.60;;
20423;SDS011;10371;49.042;8.002;2023-02-12T05:38:23;21.13;;;18.63;;
20423;SDS011;10371;49.042;8.002;2023-02-12T05:39:23;22.87;;;18.90;;
20423;SDS011;10371;49.042;8.002;2023-02-12T05:40:23;26.70;;;19.33;;
20423;SDS011;10371;49.042;8.002;2023-02-12T05:41:24;22.80;;;20.10;;
20423;SDS011;10371;49.042;8.002;2023-02-12T05:42:24;24.23;;;19.80;;
20423;SDS011;10371;49.042;8.002;2023-02-12T05:43:25;24.60;;;19.63;;
20423;SDS011;10371;49.042;8.002;2023-02-12T05:44:25;23.40;;;19.17;;
20423;SDS011;10371;49.042;8.002;2023-02-12T05:45:25;21.67;;;18.87;;
20423;SDS011;10371;49.042;8.002;2023-02-12T05:46:28;22.53;;;19.20;;
20423;SDS011;10371;49.042;8.002;2023-02-12T05:47:28;21.67;;;19.23;;
20423;SDS011;10371;49.042;8.002;2023-02-12T05:48:29;23.80;;;19.03;;
20423;SDS011;10371;49.042;8.002;2023-02-12T05:49:30;22.53;;;19.37;;
20423;SDS011;10371;49.042;8.002;2023-02-12T05:50:30;21.90;;;18.57;;
20423;SDS011;10371;49.042;8.002;2023-02-12T05:51:30;22.60;;;19.50;;
20423;SDS011;10371;49.042;8.002;2023-02-12T05:52:31;20.60;;;18.13;;
20423;SDS011;10371;49.042;8.002;2023-02-12T05:53:32;23.03;;;19.27;;
20423;SDS011;10371;49.042;8.002;2023-02-12T05:54:32;24.37;;;19.80;;
20423;SDS011;10371;49.042;8.002;2023-02-12T05:55:33;25.17;;;20.93;;
20423;SDS011;10371;49.042;8.002;2023-02-12T05:56:34;21.77;;;19.30;;
20423;SDS011;10371;49.042;8.002;2023-02-12T05:57:37;22.43;;;19.50;;
20423;SDS011;10371;49.042;8.002;2023-02-12T05:58:37;23.70;;;20.57;;
20423;SDS011;10371;49.042;8.002;2023-02-12T05:59:38;22.40;;;19.23;;
20423;SDS011;10371;49.042;8.002;2023-02-12T06:00:38;22.30;;;19.33;;
20423;SDS011;10371;49.042;8.002;2023-02-12T06:01:40;21.63;;;18.40;;
20423;SDS011;10371;49.042;8.002;2023-02-12T06:02:41;22.10;;;19.43;;
20423;SDS011;10371;49.042;8.002;2023-02-12T06:03:42;21.13;;;18.80;;
20423;SDS011;10371;49.042;8.002;2023-02-12T06:04:42;21.83;;;18.83;;
20423;SDS011;10371;49.042;8.002;2023-02-12T06:05:42;22.40;;;18.80;;
20423;SDS011;10371;49.042;8.002;2023-02-12T06:06:49;21.60;;;17.93;;
20423;SDS011;10371;49.042;8.002;2023-02-12T06:07:50;21.20;;;18.10;;
20423;SDS011;10371;49.042;8.002;2023-02-12T06:08:50;22.93;;;19.03;;
20423;SDS011;10371;49.042;8.002;2023-02-12T06:09:50;22.07;;;18.30;;
20423;SDS011;10371;49.042;8.002;2023-02-12T06:10:51;20.33;;;17.87;;
20423;SDS011;10371;49.042;8.002;2023-02-12T06:11:51;21.40;;;17.50;;
20423;SDS011;10371;49.042;8.002;2023-02-12T06:12:54;19.50;;;17.40;;
20423;SDS011;10371;49.042;8.002;2023-02-12T06:13:54;20.07;;;17.70;;
20423;SDS011;10371;49.042;8.002;2023-02-12T06:14:55;21.70;;;17.67;;
20423;SDS011;10371;49.042;8.002;2023-02-12T06:15:55;21.23;;;17.93;;
20423;SDS011;10371;49.042;8.002;2023-02-12T06:16:55;20.67;;;17.77;;
20423;SDS011;10371;49.042;8.002;2023-02-12T06:17:56;19.30;;;17.17;;
20423;SDS011;10371;49.042;8.002;2023-02-12T06:18:56;19.70;;;17.10;;
20423;SDS011;10371;49.042;8.002;2023-02-12T06:19:56;19.50;;;17.07;;
20423;SDS011;10371;49.042;8.002;2023-02-12T06:20:57;22.60;;;17.53;;
20423;SDS011;10371;49.042;8.002;2023-02-12T06:21:57;20.93;;;17.00;;
20423;SDS011;10371;49.042;8.002;2023-02-12T06:22:57;18.13;;;16.13;;
20423;SDS011;10371;49.042;8.002;2023-02-12T06:23:58;19.67;;;17.27;;
20423;SDS011;10371;49.042;8.002;2023-02-12T06:24:58;21.40;;;18.83;;
20423;SDS011;10371;49.042;8.002;2023-02-12T06:25:58;21.53;;;17.77;;
20423;SDS011;10371;49.042;8.002;2023-02-12T06:26:59;18.53;;;16.50;;
20423;SDS011;10371;49.042;8.002;2023-02-12T06:27:59;19.53;;;17.43;;
20423;SDS011;10371;49.042;8.002;2023-02-12T06:28:59;20.80;;;16.83;;
20423;SDS011;10371;49.042;8.002;2023-02-12T06:30:00;19.60;;;17.00;;
20423;SDS011;10371;49.042;8.002;2023-02-12T06:31:00;19.17;;;16.50;;
20423;SDS011;10371;49.042;8.002;2023-02-12T06:32:01;17.67;;;15.73;;
20423;SDS011;10371;49.042;8.002;2023-02-12T06:33:01;19.73;;;17.63;;
20423;SDS011;10371;49.042;8.002;2023-02-12T06:34:05;19.60;;;17.00;;
20423;SDS011;10371;49.042;8.002;2023-02-12T06:35:08;19.10;;;16.93;;
20423;SDS011;10371;49.042;8.002;2023-02-12T06:36:09;21.53;;;16.57;;
20423;SDS011;10371;49.042;8.002;2023-02-12T06:37:10;20.97;;;18.13;;
20423;SDS011;10371;49.042;8.002;2023-02-12T06:38:10;20.63;;;17.90;;
20423;SDS011;10371;49.042;8.002;2023-02-12T06:39:11;19.50;;;17.20;;
20423;SDS011;10371;49.042;8.002;2023-02-12T06:40:13;21.43;;;17.37;;
20423;SDS011;10371;49.042;8.002;2023-02-12T06:41:14;20.53;;;17.30;;
20423;SDS011;10371;49.042;8.002;2023-02-12T06:42:14;19.73;;;17.47;;
20423;SDS011;10371;49.042;8.002;2023-02-12T06:43:15;20.33;;;17.37;;
20423;SDS011;10371;49.042;8.002;2023-02-12T06:44:15;18.50;;;16.13;;
20423;SDS011;10371;49.042;8.002;2023-02-12T06:45:16;18.77;;;16.87;;
20423;SDS011;10371;49.042;8.002;2023-02-12T06:46:16;21.10;;;17.23;;
20423;SDS011;10371;49.042;8.002;2023-02-12T06:47:16;18.37;;;16.43;;
20423;SDS011;10371;49.042;8.002;2023-02-12T06:48:17;23.10;;;17.37;;
20423;SDS011;10371;49.042;8.002;2023-02-12T06:49:17;19.63;;;17.50;;
20423;SDS011;10371;49.042;8.002;2023-02-12T06:50:17;20.20;;;17.40;;
20423;SDS011;10371;49.042;8.002;2023-02-12T06:51:18;21.37;;;17.47;;